sensor_id;sensor_type;location;lat;lon;timestamp;P1;durP1;ratioP1;P2;durP2;ratioP2
13455;SDS011;6800;50.940;6.940;2023-05-10T00:00:27;15.53;;;12.63;;
13455;SDS011;6800;50.940;6.940;2023-05-10T00:04:28;15.80;;;13.20;;
13455;SDS011;6800;50.940;6.940;2023-05-10T00:08:30;18.00;;;14.77;;
13455;SDS011;6800;50.940;6.940;2023-05-10T00:12:31;19.40;;;15.30;;
13455;SDS011;6800;50.940;6.940;2023-05-10T00:16:32;23.60;;;19.13;;
13455;SDS011;6800;50.940;6.940;2023-05-10T00:20:34;22.30;;;16.43;;
13455;SDS011;6800;50.940;6.940;2023-05-10T00:24:36;20.50;;;15.77;;
13455;SDS011;6800;50.940;6.940;2023-05-10T00:28:37;22.23;;;16.23;;
13455;SDS011;6800;50.940;6.940;2023-05-10T00:32:38;21.83;;;16.40;;
13455;SDS011;6800;50.940;6.940;2023-05-10T00:36:39;22.93;;;16.23;;
13455;SDS011;6800;50.940;6.940;2023-05-10T00:40:41;24.93;;;16.23;;
13455;SDS011;6800;50.940;6.940;2023-05-10T00:44:42;25.07;;;16.70;;
13455;SDS011;6800;50.940;6.940;2023-05-10T00:48:44;26.37;;;17.37;;
13455;SDS011;6800;50.940;6.940;2023-05-10T00:52:46;23.93;;;16.57;;
13455;SDS011;6800;50.940;6.940;2023-05-10T00:56:48;24.17;;;16.20;;
13455;SDS011;6800;50.940;6.940;2023-05-10T01:00:50;24.70;;;16.53;;
13455;SDS011;6800;50.940;6.940;2023-05-10T01:04:52;24.23;;;15.80;;
13455;SDS011;6800;50.940;6.940;2023-05-10T01:08:53;29.60;;;17.13;;
13455;SDS011;6800;50.940;6.940;2023-05-10T01:12:55;25.60;;;16.93;;
13455;SDS011;6800;50.940;6.940;2023-05-10T01:16:57;26.83;;;17.23;;
13455;SDS011;6800;50.940;6.940;2023-05-10T01:21:04;25.90;;;16.97;;
13455;SDS011;6800;50.940;6.940;2023-05-10T01:34:27;27.53;;;17.97;;
13455;SDS011;6800;50.940;6.940;2023-05-10T01:38:38;28.03;;;17.67;;
13455;SDS011;6800;50.940;6.940;2023-05-10T01:42:53;26.57;;;16.90;;
13455;SDS011;6800;50.940;6.940;2023-05-10T01:47:12;26.70;;;16.90;;
13455;SDS011;6800;50.940;6.940;2023-05-10T01:51:19;25.87;;;16.37;;
13455;SDS011;6800;50.940;6.940;2023-05-10T01:55:25;23.63;;;16.03;;
13455;SDS011;6800;50.940;6.940;2023-05-10T01:59:30;20.90;;;15.33;;
13455;SDS011;6800;50.940;6.940;2023-05-10T02:03:37;24.23;;;16.87;;
13455;SDS011;6800;50.940;6.940;2023-05-10T02:07:41;25.23;;;17.07;;
13455;SDS011;6800;50.940;6.940;2023-05-10T02:11:43;27.27;;;17.40;;
13455;SDS011;6800;50.940;6.940;2023-05-10T02:15:48;22.50;;;15.63;;
13455;SDS011;6800;50.940;6.940;2023-05-10T02:19:51;25.87;;;15.80;;
13455;SDS011;6800;50.940;6.940;2023-05-10T02:23:56;25.50;;;16.03;;
13455;SDS011;6800;50.940;6.940;2023-05-10T02:27:58;22.47;;;15.67;;
13455;SDS011;6800;50.940;6.940;2023-05-10T02:32:02;24.93;;;14.80;;
13455;SDS011;6800;50.940;6.940;2023-05-10T02:36:05;23.30;;;14.93;;
13455;SDS011;6800;50.940;6.940;2023-05-10T02:40:09;20.23;;;13.70;;
13455;SDS011;6800;50.940;6.940;2023-05-10T02:44:12;22.33;;;13.57;;
13455;SDS011;6800;50.940;6.940;2023-05-10T02:48:16;16.87;;;11.13;;
13455;SDS011;6800;50.940;6.940;2023-05-10T02:52:19;16.10;;;11.63;;
13455;SDS011;6800;50.940;6.940;2023-05-10T02:56:31;14.93;;;11.23;;
13455;SDS011;6800;50.940;6.940;2023-05-10T03:00:35;14.87;;;10.27;;
13455;SDS011;6800;50.940;6.940;2023-05-10T03:04:37;15.00;;;10.40;;
13455;SDS011;6800;50.940;6.940;2023-05-10T03:08:39;14.60;;;10.63;;
13455;SDS011;6800;50.940;6.940;2023-05-10T03:16:56;15.63;;;10.43;;
13455;SDS011;6800;50.940;6.940;2023-05-10T03:21:05;12.97;;;9.50;;
13455;SDS011;6800;50.940;6.940;2023-05-10T03:25:13;13.57;;;9.83;;
13455;SDS011;6800;50.940;6.940;2023-05-10T03:29:17;12.47;;;9.50;;
13455;SDS011;6800;50.940;6.940;2023-05-10T03:33:20;12.53;;;9.40;;
13455;SDS011;6800;50.940;6.940;2023-05-10T03:37:22;16.17;;;10.30;;
13455;SDS011;6800;50.940;6.940;2023-05-10T03:41:23;14.73;;;11.07;;
13455;SDS011;6800;50.940;6.940;2023-05-10T03:45:26;17.27;;;11.67;;
13455;SDS011;6800;50.940;6.940;2023-05-10T03:49:28;18.00;;;12.30;;
13455;SDS011;6800;50.940;6.940;2023-05-10T03:53:29;18.67;;;13.13;;
13455;SDS011;6800;50.940;6.940;2023-05-10T03:57:31;23.07;;;15.40;;
13455;SDS011;6800;50.940;6.940;2023-05-10T04:01:33;22.13;;;15.97;;
13455;SDS011;6800;50.940;6.940;2023-05-10T04:05:35;23.10;;;15.83;;
13455;SDS011;6800;50.940;6.940;2023-05-10T04:09:36;22.83;;;16.83;;
13455;SDS011;6800;50.940;6.940;2023-05-10T04:13:38;28.73;;;17.80;;
13455;SDS011;6800;50.940;6.940;2023-05-10T04:17:39;25.40;;;17.83;;
13455;SDS011;6800;50.940;6.940;2023-05-10T04:21:41;28.80;;;18.43;;
13455;SDS011;6800;50.940;6.940;2023-05-10T04:25:42;30.80;;;19.20;;
13455;SDS011;6800;50.940;6.940;2023-05-10T04:29:44;26.90;;;18.50;;
13455;SDS011;6800;50.940;6.940;2023-05-10T04:33:45;28.47;;;19.23;;
13455;SDS011;6800;50.940;6.940;2023-05-10T04:37:46;29.40;;;19.63;;
13455;SDS011;6800;50.940;6.940;2023-05-10T04:41:48;28.80;;;19.33;;
13455;SDS011;6800;50.940;6.940;2023-05-10T04:45:49;29.17;;;20.10;;
13455;SDS011;6800;50.940;6.940;2023-05-10T04:49:51;32.33;;;21.63;;
13455;SDS011;6800;50.940;6.940;2023-05-10T04:53:52;29.20;;;20.40;;
13455;SDS011;6800;50.940;6.940;2023-05-10T04:58:06;29.33;;;20.37;;
13455;SDS011;6800;50.940;6.940;2023-05-10T05:02:08;30.90;;;21.07;;
13455;SDS011;6800;50.940;6.940;2023-05-10T05:06:09;30.87;;;21.07;;
13455;SDS011;6800;50.940;6.940;2023-05-10T05:10:11;27.30;;;19.67;;
13455;SDS011;6800;50.940;6.940;2023-05-10T05:14:12;29.60;;;21.07;;
13455;SDS011;6800;50.940;6.940;2023-05-10T05:18:14;25.83;;;19.53;;
13455;SDS011;6800;50.940;6.940;2023-05-10T05:22:16;30.50;;;19.30;;
13455;SDS011;6800;50.940;6.940;2023-05-10T05:26:19;28.40;;;18.20;;
13455;SDS011;6800;50.940;6.940;2023-05-10T05:30:21;26.90;;;17.70;;
13455;SDS011;6800;50.940;6.940;2023-05-10T05:34:22;24.03;;;16.40;;
13455;SDS011;6800;50.940;6.940;2023-05-10T05:38:25;24.23;;;16.63;;
13455;SDS011;6800;50.940;6.940;2023-05-10T05:42:26;25.73;;;16.43;;
13455;SDS011;6800;50.940;6.940;2023-05-10T05:46:30;20.30;;;14.50;;
13455;SDS011;6800;50.940;6.940;2023-05-10T05:50:37;27.90;;;17.13;;
13455;SDS011;6800;50.940;6.940;2023-05-10T05:54:38;25.77;;;15.97;;
13455;SDS011;6800;50.940;6.940;2023-05-10T05:58:40;19.83;;;14.83;;
13455;SDS011;6800;50.940;6.940;2023-05-10T06:02:41;20.27;;;14.93;;
13455;SDS011;6800;50.940;6.940;2023-05-10T06:06:43;19.80;;;14.87;;
13455;SDS011;6800;50.940;6.940;2023-05-10T06:10:45;24.53;;;14.73;;
13455;SDS011;6800;50.940;6.940;2023-05-10T06:14:46;21.57;;;15.70;;
13455;SDS011;6800;50.940;6.940;2023-05-10T06:18:48;20.57;;;14.80;;
13455;SDS011;6800;50.940;6.940;2023-05-10T06:22:49;25.07;;;14.20;;
13455;SDS011;6800;50.940;6.940;2023-05-10T06:26:51;20.80;;;13.30;;
13455;SDS011;6800;50.940;6.940;2023-05-10T06:30:52;20.47;;;13.63;;
13455;SDS011;6800;50.940;6.940;2023-05-10T06:34:53;20.97;;;13.97;;
13455;SDS011;6800;50.940;6.940;2023-05-10T06:38:55;24.17;;;15.37;;
13455;SDS011;6800;50.940;6.940;2023-05-10T06:42:56;25.37;;;15.77;;
13455;SDS011;6800;50.940;6.940;2023-05-10T06:46:57;22.30;;;14.30;;
13455;SDS011;6800;50.940;6.940;2023-05-10T06:50:59;21.63;;;14.70;;
13455;SDS011;6800;50.940;6.940;2023-05-10T06:55:00;18.17;;;14.57;;
13455;SDS011;6800;50.940;6.940;2023-05-10T06:59:02;19.77;;;14.63;;
13455;SDS011;6800;50.940;6.940;2023-05-10T07:03:04;22.60;;;15.60;;
13455;SDS011;6800;50.940;6.940;2023-05-10T07:07:05;25.17;;;15.73;;
13455;SDS011;6800;50.940;6.940;2023-05-10T07:11:09;20.30;;;15.17;;
13455;SDS011;6800;50.940;6.940;2023-05-10T07:15:11;23.53;;;16.10;;
13455;SDS011;6800;50.940;6.940;2023-05-10T07:19:13;21.80;;;15.37;;
13455;SDS011;6800;50.940;6.940;2023-05-10T07:23:14;23.00;;;14.87;;
13455;SDS011;6800;50.940;6.940;2023-05-10T07:27:16;19.57;;;15.33;;
13455;SDS011;6800;50.940;6.940;2023-05-10T07:31:17;20.87;;;14.80;;
13455;SDS011;6800;50.940;6.940;2023-05-10T07:35:18;29.40;;;15.03;;
13455;SDS011;6800;50.940;6.940;2023-05-10T07:39:20;21.77;;;13.57;;
13455;SDS011;6800;50.940;6.940;2023-05-10T07:43:28;17.13;;;13.23;;
13455;SDS011;6800;50.940;6.940;2023-05-10T07:47:29;17.77;;;12.23;;
13455;SDS011;6800;50.940;6.940;2023-05-10T07:51:30;21.73;;;12.30;;
13455;SDS011;6800;50.940;6.940;2023-05-10T07:55:32;22.90;;;13.63;;
13455;SDS011;6800;50.940;6.940;2023-05-10T07:59:34;17.47;;;11.97;;
13455;SDS011;6800;50.940;6.940;2023-05-10T08:03:35;22.47;;;12.73;;
13455;SDS011;6800;50.940;6.940;2023-05-10T08:07:37;15.83;;;11.90;;
13455;SDS011;6800;50.940;6.940;2023-05-10T08:11:38;13.03;;;11.63;;
13455;SDS011;6800;50.940;6.940;2023-05-10T08:15:39;15.00;;;11.23;;
13455;SDS011;6800;50.940;6.940;2023-05-10T08:19:41;11.80;;;10.57;;
13455;SDS011;6800;50.940;6.940;2023-05-10T08:23:42;13.00;;;11.10;;
13455;SDS011;6800;50.940;6.940;2023-05-10T08:27:45;12.97;;;9.90;;
13455;SDS011;6800;50.940;6.940;2023-05-10T08:31:46;11.93;;;9.60;;
13455;SDS011;6800;50.940;6.940;2023-05-10T08:35:51;12.77;;;10.33;;
13455;SDS011;6800;50.940;6.940;2023-05-10T08:39:52;15.17;;;10.43;;
13455;SDS011;6800;50.940;6.940;2023-05-10T08:43:53;12.40;;;10.20;;
13455;SDS011;6800;50.940;6.940;2023-05-10T08:47:55;13.17;;;10.77;;
13455;SDS011;6800;50.940;6.940;2023-05-10T08:51:57;14.77;;;9.73;;
13455;SDS011;6800;50.940;6.940;2023-05-10T08:56:02;14.37;;;9.73;;
13455;SDS011;6800;50.940;6.940;2023-05-10T09:00:04;12.27;;;10.17;;
13455;SDS011;6800;50.940;6.940;2023-05-10T09:04:06;13.37;;;10.57;;
13455;SDS011;6800;50.940;6.940;2023-05-10T09:08:08;14.57;;;10.73;;
13455;SDS011;6800;50.940;6.940;2023-05-10T09:12:09;13.30;;;10.63;;
13455;SDS011;6800;50.940;6.940;2023-05-10T09:16:12;13.97;;;10.70;;
13455;SDS011;6800;50.940;6.940;2023-05-10T09:20:22;14.40;;;9.77;;
13455;SDS011;6800;50.940;6.940;2023-05-10T09:24:26;15.23;;;10.00;;
13455;SDS011;6800;50.940;6.940;2023-05-10T09:28:31;12.93;;;11.80;;
13455;SDS011;6800;50.940;6.940;2023-05-10T09:32:45;12.20;;;11.00;;
13455;SDS011;6800;50.940;6.940;2023-05-10T09:36:56;13.53;;;9.13;;
13455;SDS011;6800;50.940;6.940;2023-05-10T09:40:59;12.57;;;10.27;;
13455;SDS011;6800;50.940;6.940;2023-05-10T09:45:04;13.73;;;10.67;;
13455;SDS011;6800;50.940;6.940;2023-05-10T09:49:06;19.77;;;11.83;;
13455;SDS011;6800;50.940;6.940;2023-05-10T09:53:07;19.67;;;12.63;;
13455;SDS011;6800;50.940;6.940;2023-05-10T09:57:13;20.10;;;13.50;;
13455;SDS011;6800;50.940;6.940;2023-05-10T10:01:21;16.53;;;12.63;;
13455;SDS011;6800;50.940;6.940;2023-05-10T10:05:28;16.90;;;12.87;;
13455;SDS011;6800;50.940;6.940;2023-05-10T10:09:36;15.43;;;12.03;;
13455;SDS011;6800;50.940;6.940;2023-05-10T10:13:37;18.90;;;10.50;;
13455;SDS011;6800;50.940;6.940;2023-05-10T10:17:39;11.80;;;10.50;;
13455;SDS011;6800;50.940;6.940;2023-05-10T10:21:41;12.07;;;10.70;;
13455;SDS011;6800;50.940;6.940;2023-05-10T10:25:43;10.98;;;9.60;;
13455;SDS011;6800;50.940;6.940;2023-05-10T10:29:49;10.60;;;9.50;;
13455;SDS011;6800;50.940;6.940;2023-05-10T10:34:17;11.05;;;9.90;;
13455;SDS011;6800;50.940;6.940;2023-05-10T10:42:46;9.00;;;6.70;;
13455;SDS011;6800;50.940;6.940;2023-05-10T10:51:13;9.15;;;8.25;;
13455;SDS011;6800;50.940;6.940;2023-05-10T10:55:17;9.80;;;7.57;;
13455;SDS011;6800;50.940;6.940;2023-05-10T10:59:26;11.20;;;8.13;;
13455;SDS011;6800;50.940;6.940;2023-05-10T11:03:28;10.93;;;8.15;;
13455;SDS011;6800;50.940;6.940;2023-05-10T11:07:30;8.02;;;7.22;;
13455;SDS011;6800;50.940;6.940;2023-05-10T11:11:32;7.20;;;6.50;;
13455;SDS011;6800;50.940;6.940;2023-05-10T11:15:36;6.65;;;5.80;;
13455;SDS011;6800;50.940;6.940;2023-05-10T11:19:53;5.75;;;5.15;;
13455;SDS011;6800;50.940;6.940;2023-05-10T11:24:19;5.20;;;4.20;;
13455;SDS011;6800;50.940;6.940;2023-05-10T11:28:22;6.90;;;3.95;;
13455;SDS011;6800;50.940;6.940;2023-05-10T11:32:24;4.80;;;3.40;;
13455;SDS011;6800;50.940;6.940;2023-05-10T11:36:26;3.70;;;3.40;;
13455;SDS011;6800;50.940;6.940;2023-05-10T11:40:28;4.03;;;3.67;;
13455;SDS011;6800;50.940;6.940;2023-05-10T11:44:30;4.50;;;3.83;;
13455;SDS011;6800;50.940;6.940;2023-05-10T11:48:32;3.53;;;3.00;;
13455;SDS011;6800;50.940;6.940;2023-05-10T11:52:37;3.65;;;3.28;;
13455;SDS011;6800;50.940;6.940;2023-05-10T11:56:39;3.65;;;2.80;;
13455;SDS011;6800;50.940;6.940;2023-05-10T12:00:41;4.03;;;3.00;;
13455;SDS011;6800;50.940;6.940;2023-05-10T12:04:42;3.30;;;3.00;;
13455;SDS011;6800;50.940;6.940;2023-05-10T12:08:44;2.80;;;2.20;;
13455;SDS011;6800;50.940;6.940;2023-05-10T12:12:47;4.70;;;2.63;;
13455;SDS011;6800;50.940;6.940;2023-05-10T12:16:49;3.08;;;2.78;;
13455;SDS011;6800;50.940;6.940;2023-05-10T12:20:54;2.80;;;2.40;;
13455;SDS011;6800;50.940;6.940;2023-05-10T12:24:55;3.38;;;2.13;;
13455;SDS011;6800;50.940;6.940;2023-05-10T12:29:12;3.42;;;2.90;;
13455;SDS011;6800;50.940;6.940;2023-05-10T12:33:19;2.65;;;2.45;;
13455;SDS011;6800;50.940;6.940;2023-05-10T12:37:23;4.78;;;2.10;;
13455;SDS011;6800;50.940;6.940;2023-05-10T12:41:25;2.72;;;2.20;;
13455;SDS011;6800;50.940;6.940;2023-05-10T12:45:26;2.45;;;2.10;;
13455;SDS011;6800;50.940;6.940;2023-05-10T12:49:28;1.80;;;1.55;;
13455;SDS011;6800;50.940;6.940;2023-05-10T12:53:29;3.03;;;2.53;;
13455;SDS011;6800;50.940;6.940;2023-05-10T12:57:31;4.05;;;2.22;;
13455;SDS011;6800;50.940;6.940;2023-05-10T13:01:32;7.25;;;3.25;;
13455;SDS011;6800;50.940;6.940;2023-05-10T13:05:33;2.13;;;1.92;;
13455;SDS011;6800;50.940;6.940;2023-05-10T13:09:35;3.22;;;1.98;;
13455;SDS011;6800;50.940;6.940;2023-05-10T13:13:36;2.35;;;1.83;;
13455;SDS011;6800;50.940;6.940;2023-05-10T13:17:38;2.05;;;1.60;;
13455;SDS011;6800;50.940;6.940;2023-05-10T13:21:41;1.70;;;1.60;;
13455;SDS011;6800;50.940;6.940;2023-05-10T13:25:43;2.60;;;2.05;;
13455;SDS011;6800;50.940;6.940;2023-05-10T13:29:44;5.53;;;3.05;;
13455;SDS011;6800;50.940;6.940;2023-05-10T13:33:48;2.63;;;1.60;;
13455;SDS011;6800;50.940;6.940;2023-05-10T13:37:50;3.17;;;1.33;;
13455;SDS011;6800;50.940;6.940;2023-05-10T13:41:51;6.65;;;3.20;;
13455;SDS011;6800;50.940;6.940;2023-05-10T13:45:54;1.58;;;1.20;;
13455;SDS011;6800;50.940;6.940;2023-05-10T13:49:56;1.90;;;1.27;;
13455;SDS011;6800;50.940;6.940;2023-05-10T13:53:58;3.25;;;1.30;;
13455;SDS011;6800;50.940;6.940;2023-05-10T13:57:59;1.00;;;0.90;;
13455;SDS011;6800;50.940;6.940;2023-05-10T14:02:01;1.38;;;1.02;;
13455;SDS011;6800;50.940;6.940;2023-05-10T14:06:05;1.10;;;1.00;;
13455;SDS011;6800;50.940;6.940;2023-05-10T14:10:08;2.63;;;1.30;;
13455;SDS011;6800;50.940;6.940;2023-05-10T14:14:10;2.42;;;2.20;;
13455;SDS011;6800;50.940;6.940;2023-05-10T14:18:11;1.88;;;1.25;;
13455;SDS011;6800;50.940;6.940;2023-05-10T14:22:12;2.25;;;1.17;;
13455;SDS011;6800;50.940;6.940;2023-05-10T14:26:14;2.22;;;1.30;;
13455;SDS011;6800;50.940;6.940;2023-05-10T14:30:15;2.25;;;1.20;;
13455;SDS011;6800;50.940;6.940;2023-05-10T14:34:17;2.25;;;0.90;;
13455;SDS011;6800;50.940;6.940;2023-05-10T14:38:18;2.55;;;1.23;;
13455;SDS011;6800;50.940;6.940;2023-05-10T14:42:19;1.63;;;1.38;;
13455;SDS011;6800;50.940;6.940;2023-05-10T14:46:21;2.65;;;0.90;;
13455;SDS011;6800;50.940;6.940;2023-05-10T14:50:23;2.15;;;1.00;;
13455;SDS011;6800;50.940;6.940;2023-05-10T14:54:37;1.60;;;1.40;;
13455;SDS011;6800;50.940;6.940;2023-05-10T14:58:38;3.08;;;1.50;;
13455;SDS011;6800;50.940;6.940;2023-05-10T15:02:40;2.47;;;1.10;;
13455;SDS011;6800;50.940;6.940;2023-05-10T15:06:42;4.03;;;1.85;;
13455;SDS011;6800;50.940;6.940;2023-05-10T15:10:43;2.70;;;2.30;;
13455;SDS011;6800;50.940;6.940;2023-05-10T15:14:45;3.00;;;1.60;;
13455;SDS011;6800;50.940;6.940;2023-05-10T15:18:46;2.58;;;1.90;;
13455;SDS011;6800;50.940;6.940;2023-05-10T15:22:48;4.75;;;2.10;;
13455;SDS011;6800;50.940;6.940;2023-05-10T15:26:49;2.28;;;2.08;;
13455;SDS011;6800;50.940;6.940;2023-05-10T15:30:51;2.92;;;2.05;;
13455;SDS011;6800;50.940;6.940;2023-05-10T15:34:52;2.00;;;1.38;;
13455;SDS011;6800;50.940;6.940;2023-05-10T15:38:54;1.80;;;1.70;;
13455;SDS011;6800;50.940;6.940;2023-05-10T15:42:55;2.42;;;1.90;;
13455;SDS011;6800;50.940;6.940;2023-05-10T15:46:57;3.28;;;1.65;;
13455;SDS011;6800;50.940;6.940;2023-05-10T15:50:58;3.05;;;1.60;;
13455;SDS011;6800;50.940;6.940;2023-05-10T15:54:59;1.58;;;1.45;;
13455;SDS011;6800;50.940;6.940;2023-05-10T15:59:01;2.53;;;1.75;;
13455;SDS011;6800;50.940;6.940;2023-05-10T16:03:03;2.80;;;2.10;;
13455;SDS011;6800;50.940;6.940;2023-05-10T16:07:05;3.25;;;1.90;;
13455;SDS011;6800;50.940;6.940;2023-05-10T16:11:06;2.67;;;1.90;;
13455;SDS011;6800;50.940;6.940;2023-05-10T16:15:08;3.20;;;1.92;;
13455;SDS011;6800;50.940;6.940;2023-05-10T16:19:10;1.90;;;1.73;;
13455;SDS011;6800;50.940;6.940;2023-05-10T16:23:11;2.78;;;2.20;;
13455;SDS011;6800;50.940;6.940;2023-05-10T16:27:14;2.80;;;2.05;;
13455;SDS011;6800;50.940;6.940;2023-05-10T16:31:15;2.10;;;1.50;;
13455;SDS011;6800;50.940;6.940;2023-05-10T16:35:19;2.95;;;2.00;;
13455;SDS011;6800;50.940;6.940;2023-05-10T16:39:20;2.97;;;2.25;;
13455;SDS011;6800;50.940;6.940;2023-05-10T16:43:22;3.22;;;1.70;;
13455;SDS011;6800;50.940;6.940;2023-05-10T16:47:26;1.77;;;1.65;;
13455;SDS011;6800;50.940;6.940;2023-05-10T16:51:27;2.13;;;1.60;;
13455;SDS011;6800;50.940;6.940;2023-05-10T16:55:29;2.80;;;2.25;;
13455;SDS011;6800;50.940;6.940;2023-05-10T16:59:30;3.65;;;1.90;;
13455;SDS011;6800;50.940;6.940;2023-05-10T17:03:32;2.97;;;2.03;;
13455;SDS011;6800;50.940;6.940;2023-05-10T17:07:34;1.90;;;1.70;;
13455;SDS011;6800;50.940;6.940;2023-05-10T17:11:35;2.58;;;2.10;;
13455;SDS011;6800;50.940;6.940;2023-05-10T17:15:37;2.45;;;2.13;;
13455;SDS011;6800;50.940;6.940;2023-05-10T17:19:39;3.30;;;2.30;;
13455;SDS011;6800;50.940;6.940;2023-05-10T17:23:44;1.83;;;1.73;;
13455;SDS011;6800;50.940;6.940;2023-05-10T17:27:46;2.28;;;2.00;;
13455;SDS011;6800;50.940;6.940;2023-05-10T17:31:47;5.22;;;2.13;;
13455;SDS011;6800;50.940;6.940;2023-05-10T17:35:48;3.30;;;2.95;;
13455;SDS011;6800;50.940;6.940;2023-05-10T17:39:50;3.58;;;2.63;;
13455;SDS011;6800;50.940;6.940;2023-05-10T17:43:52;4.00;;;2.80;;
13455;SDS011;6800;50.940;6.940;2023-05-10T17:47:54;4.15;;;2.90;;
13455;SDS011;6800;50.940;6.940;2023-05-10T17:51:55;3.45;;;3.10;;
13455;SDS011;6800;50.940;6.940;2023-05-10T17:55:56;4.07;;;3.60;;
13455;SDS011;6800;50.940;6.940;2023-05-10T17:59:59;3.47;;;3.17;;
13455;SDS011;6800;50.940;6.940;2023-05-10T18:04:02;4.45;;;3.25;;
13455;SDS011;6800;50.940;6.940;2023-05-10T18:08:04;3.30;;;3.00;;
13455;SDS011;6800;50.940;6.940;2023-05-10T18:12:07;3.50;;;2.75;;
13455;SDS011;6800;50.940;6.940;2023-05-10T18:16:08;3.97;;;2.08;;
13455;SDS011;6800;50.940;6.940;2023-05-10T18:20:12;1.92;;;1.73;;
13455;SDS011;6800;50.940;6.940;2023-05-10T18:24:14;3.78;;;2.80;;
13455;SDS011;6800;50.940;6.940;2023-05-10T18:28:20;2.58;;;2.35;;
13455;SDS011;6800;50.940;6.940;2023-05-10T18:32:21;4.30;;;3.67;;
13455;SDS011;6800;50.940;6.940;2023-05-10T18:36:23;7.67;;;5.13;;
13455;SDS011;6800;50.940;6.940;2023-05-10T18:40:25;6.87;;;5.33;;
13455;SDS011;6800;50.940;6.940;2023-05-10T18:44:27;8.63;;;6.77;;
13455;SDS011;6800;50.940;6.940;2023-05-10T18:48:29;9.00;;;8.10;;
13455;SDS011;6800;50.940;6.940;2023-05-10T18:52:30;9.60;;;8.60;;
13455;SDS011;6800;50.940;6.940;2023-05-10T18:56:31;8.93;;;8.03;;
13455;SDS011;6800;50.940;6.940;2023-05-10T19:00:33;10.40;;;9.30;;
13455;SDS011;6800;50.940;6.940;2023-05-10T19:04:34;10.00;;;9.00;;
13455;SDS011;6800;50.940;6.940;2023-05-10T19:08:36;9.57;;;8.47;;
13455;SDS011;6800;50.940;6.940;2023-05-10T19:12:37;9.07;;;7.80;;
13455;SDS011;6800;50.940;6.940;2023-05-10T19:16:41;11.00;;;9.80;;
13455;SDS011;6800;50.940;6.940;2023-05-10T19:20:43;12.13;;;9.77;;
13455;SDS011;6800;50.940;6.940;2023-05-10T19:24:44;14.70;;;13.27;;
13455;SDS011;6800;50.940;6.940;2023-05-10T19:28:49;18.60;;;16.80;;
13455;SDS011;6800;50.940;6.940;2023-05-10T19:32:50;17.83;;;16.00;;
13455;SDS011;6800;50.940;6.940;2023-05-10T19:36:53;16.10;;;14.40;;
13455;SDS011;6800;50.940;6.940;2023-05-10T19:40:55;17.90;;;15.93;;
13455;SDS011;6800;50.940;6.940;2023-05-10T19:44:59;17.80;;;13.70;;
13455;SDS011;6800;50.940;6.940;2023-05-10T19:49:01;14.20;;;12.80;;
13455;SDS011;6800;50.940;6.940;2023-05-10T19:53:02;15.63;;;13.37;;
13455;SDS011;6800;50.940;6.940;2023-05-10T19:57:03;13.80;;;12.37;;
13455;SDS011;6800;50.940;6.940;2023-05-10T20:01:05;13.60;;;12.20;;
13455;SDS011;6800;50.940;6.940;2023-05-10T20:05:08;14.37;;;12.17;;
13455;SDS011;6800;50.940;6.940;2023-05-10T20:09:09;14.40;;;12.87;;
13455;SDS011;6800;50.940;6.940;2023-05-10T20:13:11;14.33;;;12.83;;
13455;SDS011;6800;50.940;6.940;2023-05-10T20:17:12;14.83;;;12.73;;
13455;SDS011;6800;50.940;6.940;2023-05-10T20:21:13;17.03;;;12.70;;
13455;SDS011;6800;50.940;6.940;2023-05-10T20:25:15;15.13;;;12.47;;
13455;SDS011;6800;50.940;6.940;2023-05-10T20:29:18;14.70;;;13.27;;
13455;SDS011;6800;50.940;6.940;2023-05-10T20:33:23;15.13;;;12.50;;
13455;SDS011;6800;50.940;6.940;2023-05-10T20:37:25;17.73;;;13.43;;
13455;SDS011;6800;50.940;6.940;2023-05-10T20:41:28;17.20;;;14.00;;
13455;SDS011;6800;50.940;6.940;2023-05-10T20:45:29;16.03;;;14.47;;
13455;SDS011;6800;50.940;6.940;2023-05-10T20:49:31;15.67;;;14.03;;
13455;SDS011;6800;50.940;6.940;2023-05-10T20:53:32;14.80;;;13.20;;
13455;SDS011;6800;50.940;6.940;2023-05-10T20:57:33;13.00;;;11.60;;
13455;SDS011;6800;50.940;6.940;2023-05-10T21:01:35;16.30;;;14.43;;
13455;SDS011;6800;50.940;6.940;2023-05-10T21:05:36;14.23;;;12.73;;
13455;SDS011;6800;50.940;6.940;2023-05-10T21:09:38;14.77;;;12.73;;
13455;SDS011;6800;50.940;6.940;2023-05-10T21:13:39;13.03;;;11.80;;
13455;SDS011;6800;50.940;6.940;2023-05-10T21:17:41;14.13;;;12.33;;
13455;SDS011;6800;50.940;6.940;2023-05-10T21:21:42;12.13;;;10.93;;
13455;SDS011;6800;50.940;6.940;2023-05-10T21:25:43;14.60;;;11.87;;
13455;SDS011;6800;50.940;6.940;2023-05-10T21:29:45;13.10;;;11.70;;
13455;SDS011;6800;50.940;6.940;2023-05-10T21:33:46;13.87;;;12.57;;
13455;SDS011;6800;50.940;6.940;2023-05-10T21:37:48;12.93;;;11.70;;
13455;SDS011;6800;50.940;6.940;2023-05-10T21:41:49;14.90;;;13.30;;
13455;SDS011;6800;50.940;6.940;2023-05-10T21:45:51;13.27;;;11.47;;
13455;SDS011;6800;50.940;6.940;2023-05-10T21:49:52;11.80;;;10.47;;
13455;SDS011;6800;50.940;6.940;2023-05-10T21:53:53;11.40;;;10.30;;
13455;SDS011;6800;50.940;6.940;2023-05-10T21:57:55;13.83;;;12.37;;
13455;SDS011;6800;50.940;6.940;2023-05-10T22:01:57;17.03;;;14.50;;
13455;SDS011;6800;50.940;6.940;2023-05-10T22:05:59;19.93;;;16.93;;
13455;SDS011;6800;50.940;6.940;2023-05-10T22:10:00;21.93;;;19.63;;
13455;SDS011;6800;50.940;6.940;2023-05-10T22:14:02;32.10;;;26.23;;
13455;SDS011;6800;50.940;6.940;2023-05-10T22:18:03;23.03;;;19.73;;
13455;SDS011;6800;50.940;6.940;2023-05-10T22:22:05;30.40;;;22.40;;
13455;SDS011;6800;50.940;6.940;2023-05-10T22:26:06;28.87;;;22.73;;
13455;SDS011;6800;50.940;6.940;2023-05-10T22:30:07;33.57;;;28.40;;
13455;SDS011;6800;50.940;6.940;2023-05-10T22:34:09;27.77;;;22.80;;
13455;SDS011;6800;50.940;6.940;2023-05-10T22:38:10;28.00;;;23.37;;
13455;SDS011;6800;50.940;6.940;2023-05-10T22:42:12;28.73;;;23.60;;
13455;SDS011;6800;50.940;6.940;2023-05-10T22:46:14;38.20;;;29.27;;
13455;SDS011;6800;50.940;6.940;2023-05-10T22:50:16;47.00;;;36.07;;
13455;SDS011;6800;50.940;6.940;2023-05-10T22:54:18;29.83;;;24.70;;
13455;SDS011;6800;50.940;6.940;2023-05-10T22:58:20;32.03;;;23.50;;
13455;SDS011;6800;50.940;6.940;2023-05-10T23:02:21;25.57;;;21.93;;
13455;SDS011;6800;50.940;6.940;2023-05-10T23:06:22;28.17;;;22.77;;
13455;SDS011;6800;50.940;6.940;2023-05-10T23:10:24;26.00;;;21.37;;
13455;SDS011;6800;50.940;6.940;2023-05-10T23:14:25;19.63;;;15.10;;
13455;SDS011;6800;50.940;6.940;2023-05-10T23:18:26;13.30;;;11.33;;
13455;SDS011;6800;50.940;6.940;2023-05-10T23:22:28;12.13;;;10.93;;
13455;SDS011;6800;50.940;6.940;2023-05-10T23:26:29;14.43;;;12.37;;
13455;SDS011;6800;50.940;6.940;2023-05-10T23:30:30;12.20;;;10.50;;
13455;SDS011;6800;50.940;6.940;2023-05-10T23:34:32;12.13;;;10.90;;
13455;SDS011;6800;50.940;6.940;2023-05-10T23:38:33;6.60;;;5.90;;
13455;SDS011;6800;50.940;6.940;2023-05-10T23:42:35;9.00;;;8.03;;
13455;SDS011;6800;50.940;6.940;2023-05-10T23:46:36;8.17;;;7.10;;
13455;SDS011;6800;50.940;6.940;2023-05-10T23:50:37;4.27;;;3.97;;
13455;SDS011;6800;50.940;6.940;2023-05-10T23:54:44;2.67;;;2.47;;
13455;SDS011;6800;50.940;6.940;2023-05-10T23:58:46;3.53;;;2.17;;
